Archival Weather

NSFA McMurdo Sound

NSFA McMurdo Sound, Antarctica (NZCM)

Report from: Friday, September 23, 2022 11:56 AM UTC
Current time: Sunday, December 4, 2022 11:01 AM UTC

Current weather
Weather history
Weather forecast

Present weatherHaze
Temperature-20.2°C (-4.4°F)
Wind chill-33.1°C (-27.5°F)
Dew point-24.7°C (-12.5°F)
Winds 17 kts (8.7 m/s, 19.6 mph) East-Northeast (60°)
Wind gusts 24 kts (12.3 m/s, 27.6 mph)
Visibility2.1 mi. (3.4 km)
Clouds Ceiling: Overcast 1,700 ft. (518 m)
Altimeter28.62 in.Hg (969 mB)
Precip. events Snow ended 11:56 AM
Relative humidity67 %
Density altitude-2,933 ft. (-894 m)
Sea-level pressure107.0 kPa (1070 mB, 31.59 in.Hg)
Remarks Fully automated report
System requires maintenance
Special weather observation
Automated weather observing station with precipitation discriminator
Flight conditions Instrument Meteorological Conditions
Raw dataSPECI NZCM 231156Z AUTO 06017G24KT 3400 HZ OVC017 M20/M25 A2862 RMK AO2 SNE1156 SLP698 T12021247 $
An error has occurred. This application may no longer respond until reloaded. Reload 🗙